sensor_id;sensor_type;location;lat;lon;timestamp;pressure;altitude;pressure_sealevel;temperature;humidity
40502;BME280;29631;49.168;9.848;2022-12-10T00:01:28;95420.31;;;8.59;78.90
40502;BME280;29631;49.168;9.848;2022-12-10T00:03:54;95406.91;;;8.49;78.13
40502;BME280;29631;49.168;9.848;2022-12-10T00:06:25;95350.16;;;8.18;78.33
40502;BME280;29631;49.168;9.848;2022-12-10T00:08:52;95365.56;;;8.15;78.12
40502;BME280;29631;49.168;9.848;2022-12-10T00:11:19;95408.81;;;8.42;78.19
40502;BME280;29631;49.168;9.848;2022-12-10T00:13:47;95423.16;;;8.57;77.93
40502;BME280;29631;49.168;9.848;2022-12-10T00:16:15;95426.78;;;8.56;78.09
40502;BME280;29631;49.168;9.848;2022-12-10T00:18:42;95388.69;;;8.36;78.14
40502;BME280;29631;49.168;9.848;2022-12-10T00:21:11;95435.19;;;8.65;78.09
40502;BME280;29631;49.168;9.848;2022-12-10T00:23:38;95423.50;;;8.61;77.83
40502;BME280;29631;49.168;9.848;2022-12-10T00:26:06;95442.84;;;8.66;78.13
40502;BME280;29631;49.168;9.848;2022-12-10T00:28:33;95339.59;;;8.07;79.08
40502;BME280;29631;49.168;9.848;2022-12-10T00:31:09;95371.97;;;8.19;78.24
40502;BME280;29631;49.168;9.848;2022-12-10T00:33:35;95332.97;;;8.04;78.48
40502;BME280;29631;49.168;9.848;2022-12-10T00:36:10;95430.38;;;8.62;78.43
40502;BME280;29631;49.168;9.848;2022-12-10T00:38:37;95418.47;;;8.59;78.86
40502;BME280;29631;49.168;9.848;2022-12-10T00:41:03;95423.50;;;8.61;78.51
40502;BME280;29631;49.168;9.848;2022-12-10T00:43:29;95409.53;;;8.49;78.34
40502;BME280;29631;49.168;9.848;2022-12-10T00:45:55;95417.91;;;8.57;78.33
40502;BME280;29631;49.168;9.848;2022-12-10T00:48:21;95425.56;;;8.59;78.89
40502;BME280;29631;49.168;9.848;2022-12-10T00:51:09;95449.69;;;8.67;78.97
40502;BME280;29631;49.168;9.848;2022-12-10T00:53:37;95411.56;;;8.47;78.92
40502;BME280;29631;49.168;9.848;2022-12-10T00:56:05;95445.22;;;8.67;78.72
40502;BME280;29631;49.168;9.848;2022-12-10T00:58:33;95406.78;;;8.44;79.10
40502;BME280;29631;49.168;9.848;2022-12-10T01:01:21;95414.06;;;8.42;78.44
40502;BME280;29631;49.168;9.848;2022-12-10T01:03:49;95445.53;;;8.60;79.15
40502;BME280;29631;49.168;9.848;2022-12-10T01:08:48;95371.97;;;8.19;78.15
40502;BME280;29631;49.168;9.848;2022-12-10T01:11:17;95425.16;;;8.44;77.97
40502;BME280;29631;49.168;9.848;2022-12-10T01:13:44;95453.06;;;8.56;78.24
40502;BME280;29631;49.168;9.848;2022-12-10T01:16:14;95461.66;;;8.63;78.94
40502;BME280;29631;49.168;9.848;2022-12-10T01:18:41;95406.50;;;8.34;78.63
40502;BME280;29631;49.168;9.848;2022-12-10T01:21:11;95434.19;;;8.48;78.90
40502;BME280;29631;49.168;9.848;2022-12-10T01:23:40;95395.59;;;8.19;78.70
40502;BME280;29631;49.168;9.848;2022-12-10T01:26:10;95459.13;;;8.57;79.17
40502;BME280;29631;49.168;9.848;2022-12-10T01:28:38;95397.63;;;8.17;79.11
40502;BME280;29631;49.168;9.848;2022-12-10T01:31:15;95469.19;;;8.60;78.38
40502;BME280;29631;49.168;9.848;2022-12-10T01:33:41;95476.50;;;8.58;78.98
40502;BME280;29631;49.168;9.848;2022-12-10T01:36:17;95455.66;;;8.45;78.40
40502;BME280;29631;49.168;9.848;2022-12-10T01:38:43;95470.66;;;8.56;78.50
40502;BME280;29631;49.168;9.848;2022-12-10T01:41:17;95473.94;;;8.51;78.38
40502;BME280;29631;49.168;9.848;2022-12-10T01:44:05;95480.13;;;8.57;79.33
40502;BME280;29631;49.168;9.848;2022-12-10T01:46:53;95422.09;;;8.11;78.72
40502;BME280;29631;49.168;9.848;2022-12-10T01:51:53;95491.66;;;8.56;78.92
40502;BME280;29631;49.168;9.848;2022-12-10T01:54:31;95469.34;;;8.47;79.05
40502;BME280;29631;49.168;9.848;2022-12-10T01:57:03;95466.59;;;8.42;78.34
40502;BME280;29631;49.168;9.848;2022-12-10T01:59:31;95471.41;;;8.45;79.06
40502;BME280;29631;49.168;9.848;2022-12-10T02:05:01;95485.03;;;8.53;78.76
40502;BME280;29631;49.168;9.848;2022-12-10T02:07:55;95492.13;;;8.53;78.64
40502;BME280;29631;49.168;9.848;2022-12-10T02:13:42;95487.88;;;8.52;78.09
40502;BME280;29631;49.168;9.848;2022-12-10T02:16:16;95461.97;;;8.37;79.13
40502;BME280;29631;49.168;9.848;2022-12-10T02:18:51;95426.25;;;8.00;77.91
40502;BME280;29631;49.168;9.848;2022-12-10T02:21:29;95493.13;;;8.52;79.13
40502;BME280;29631;49.168;9.848;2022-12-10T02:24:00;95493.13;;;8.52;78.82
40502;BME280;29631;49.168;9.848;2022-12-10T02:29:28;95490.34;;;8.47;78.19
40502;BME280;29631;49.168;9.848;2022-12-10T02:32:18;95425.47;;;8.00;79.20
40502;BME280;29631;49.168;9.848;2022-12-10T02:34:58;95490.66;;;8.39;78.20
40502;BME280;29631;49.168;9.848;2022-12-10T02:37:33;95484.16;;;8.41;78.63
40502;BME280;29631;49.168;9.848;2022-12-10T02:40:06;95475.56;;;8.34;78.70
40502;BME280;29631;49.168;9.848;2022-12-10T02:42:37;95457.94;;;8.23;78.59
40502;BME280;29631;49.168;9.848;2022-12-10T02:45:06;95473.53;;;8.36;78.70
40502;BME280;29631;49.168;9.848;2022-12-10T02:47:32;95465.72;;;8.30;78.09
40502;BME280;29631;49.168;9.848;2022-12-10T02:49:59;95449.47;;;8.21;79.00
40502;BME280;29631;49.168;9.848;2022-12-10T02:52:25;95441.22;;;8.18;78.47
40502;BME280;29631;49.168;9.848;2022-12-10T02:54:52;95454.06;;;8.26;77.94
40502;BME280;29631;49.168;9.848;2022-12-10T02:57:35;95467.81;;;8.39;78.49
40502;BME280;29631;49.168;9.848;2022-12-10T03:06:27;95465.84;;;8.35;78.95
40502;BME280;29631;49.168;9.848;2022-12-10T03:09:04;95462.66;;;8.33;78.74
40502;BME280;29631;49.168;9.848;2022-12-10T03:11:31;95461.47;;;8.29;78.47
40502;BME280;29631;49.168;9.848;2022-12-10T03:14:18;95463.91;;;8.30;78.62
40502;BME280;29631;49.168;9.848;2022-12-10T03:16:51;95443.25;;;8.16;78.64
40502;BME280;29631;49.168;9.848;2022-12-10T03:19:23;95430.72;;;8.18;79.03
40502;BME280;29631;49.168;9.848;2022-12-10T03:21:51;95448.94;;;8.31;78.86
40502;BME280;29631;49.168;9.848;2022-12-10T03:24:19;95444.13;;;8.28;79.02
40502;BME280;29631;49.168;9.848;2022-12-10T03:26:48;95424.50;;;8.12;78.34
40502;BME280;29631;49.168;9.848;2022-12-10T03:29:23;95364.19;;;7.77;79.02
40502;BME280;29631;49.168;9.848;2022-12-10T03:31:51;95439.75;;;8.22;79.06
40502;BME280;29631;49.168;9.848;2022-12-10T03:34:18;95441.81;;;8.20;79.08
40502;BME280;29631;49.168;9.848;2022-12-10T03:36:45;95414.53;;;8.03;78.73
40502;BME280;29631;49.168;9.848;2022-12-10T03:39:11;95424.50;;;8.12;78.77
40502;BME280;29631;49.168;9.848;2022-12-10T03:41:38;95440.22;;;8.19;78.76
40502;BME280;29631;49.168;9.848;2022-12-10T03:44:04;95368.06;;;7.74;78.79
40502;BME280;29631;49.168;9.848;2022-12-10T03:46:31;95419.06;;;8.14;78.82
40502;BME280;29631;49.168;9.848;2022-12-10T03:48:59;95434.97;;;8.19;78.53
40502;BME280;29631;49.168;9.848;2022-12-10T03:51:25;95430.56;;;8.13;79.50
40502;BME280;29631;49.168;9.848;2022-12-10T03:53:51;95411.47;;;8.06;78.76
40502;BME280;29631;49.168;9.848;2022-12-10T03:56:20;95435.69;;;8.26;79.05
40502;BME280;29631;49.168;9.848;2022-12-10T03:58:47;95447.81;;;8.27;78.33
40502;BME280;29631;49.168;9.848;2022-12-10T04:01:13;95407.00;;;8.06;79.38
40502;BME280;29631;49.168;9.848;2022-12-10T04:03:41;95376.84;;;7.80;78.41
40502;BME280;29631;49.168;9.848;2022-12-10T04:06:13;95447.44;;;8.23;78.99
40502;BME280;29631;49.168;9.848;2022-12-10T04:08:39;95421.69;;;8.14;79.19
40502;BME280;29631;49.168;9.848;2022-12-10T04:11:07;95448.59;;;8.27;79.23
40502;BME280;29631;49.168;9.848;2022-12-10T04:13:35;95452.59;;;8.30;79.49
40502;BME280;29631;49.168;9.848;2022-12-10T04:16:20;95405.34;;;7.94;78.31
40502;BME280;29631;49.168;9.848;2022-12-10T04:19:01;95446.25;;;8.19;78.99
40502;BME280;29631;49.168;9.848;2022-12-10T04:21:30;95461.47;;;8.29;78.17
40502;BME280;29631;49.168;9.848;2022-12-10T04:24:16;95432.59;;;8.11;78.82
40502;BME280;29631;49.168;9.848;2022-12-10T04:27:12;95453.13;;;8.20;78.38
40502;BME280;29631;49.168;9.848;2022-12-10T04:29:39;95396.94;;;7.86;78.69
40502;BME280;29631;49.168;9.848;2022-12-10T04:32:06;95412.50;;;8.05;78.40
40502;BME280;29631;49.168;9.848;2022-12-10T04:34:31;95448.75;;;8.14;78.32
40502;BME280;29631;49.168;9.848;2022-12-10T04:36:58;95444.59;;;8.25;78.42
40502;BME280;29631;49.168;9.848;2022-12-10T04:39:25;95435.75;;;8.19;78.60
40502;BME280;29631;49.168;9.848;2022-12-10T04:41:51;95414.63;;;8.14;78.84
40502;BME280;29631;49.168;9.848;2022-12-10T04:44:18;95402.22;;;8.03;78.31
40502;BME280;29631;49.168;9.848;2022-12-10T04:46:44;95434.50;;;8.22;78.57
40502;BME280;29631;49.168;9.848;2022-12-10T04:49:11;95364.25;;;7.70;78.45
40502;BME280;29631;49.168;9.848;2022-12-10T04:51:37;95406.94;;;7.95;78.20
40502;BME280;29631;49.168;9.848;2022-12-10T04:54:04;95449.09;;;8.18;79.45
40502;BME280;29631;49.168;9.848;2022-12-10T04:56:30;95441.06;;;8.13;78.33
40502;BME280;29631;49.168;9.848;2022-12-10T04:58:57;95405.69;;;7.80;78.93
40502;BME280;29631;49.168;9.848;2022-12-10T05:01:23;95445.13;;;8.09;78.77
40502;BME280;29631;49.168;9.848;2022-12-10T05:03:49;95467.97;;;8.26;79.04
40502;BME280;29631;49.168;9.848;2022-12-10T05:06:16;95440.34;;;8.06;78.65
40502;BME280;29631;49.168;9.848;2022-12-10T05:08:43;95467.63;;;8.23;78.78
40502;BME280;29631;49.168;9.848;2022-12-10T05:11:13;95457.41;;;8.15;78.92
40502;BME280;29631;49.168;9.848;2022-12-10T05:13:39;95454.34;;;8.18;78.38
40502;BME280;29631;49.168;9.848;2022-12-10T05:16:08;95480.31;;;8.26;78.58
40502;BME280;29631;49.168;9.848;2022-12-10T05:18:35;95448.22;;;8.06;79.10
40502;BME280;29631;49.168;9.848;2022-12-10T05:21:05;95474.09;;;8.20;79.19
40502;BME280;29631;49.168;9.848;2022-12-10T05:23:33;95456.66;;;8.08;79.11
40502;BME280;29631;49.168;9.848;2022-12-10T05:28:45;95416.88;;;7.75;78.33
40502;BME280;29631;49.168;9.848;2022-12-10T05:31:18;95483.47;;;8.10;78.58
40502;BME280;29631;49.168;9.848;2022-12-10T05:33:44;95473.84;;;8.04;78.42
40502;BME280;29631;49.168;9.848;2022-12-10T05:36:13;95490.34;;;8.11;79.26
40502;BME280;29631;49.168;9.848;2022-12-10T05:38:40;95500.41;;;8.14;79.03
40502;BME280;29631;49.168;9.848;2022-12-10T05:41:19;95500.69;;;8.06;78.77
40502;BME280;29631;49.168;9.848;2022-12-10T05:43:46;95502.06;;;8.08;79.31
40502;BME280;29631;49.168;9.848;2022-12-10T05:46:20;95511.19;;;8.06;78.60
40502;BME280;29631;49.168;9.848;2022-12-10T05:48:48;95489.00;;;8.02;78.62
40502;BME280;29631;49.168;9.848;2022-12-10T05:51:17;95497.94;;;8.01;79.01
40502;BME280;29631;49.168;9.848;2022-12-10T05:53:44;95513.16;;;8.10;78.58
40502;BME280;29631;49.168;9.848;2022-12-10T05:56:15;95504.91;;;8.07;78.36
40502;BME280;29631;49.168;9.848;2022-12-10T05:58:45;95512.94;;;8.12;78.34
40502;BME280;29631;49.168;9.848;2022-12-10T06:01:18;95426.75;;;7.55;79.05
40502;BME280;29631;49.168;9.848;2022-12-10T06:03:45;95518.97;;;8.12;78.28
40502;BME280;29631;49.168;9.848;2022-12-10T06:06:11;95525.44;;;8.16;78.31
40502;BME280;29631;49.168;9.848;2022-12-10T06:08:37;95531.25;;;8.18;78.38
40502;BME280;29631;49.168;9.848;2022-12-10T06:11:09;95522.97;;;7.97;78.28
40502;BME280;29631;49.168;9.848;2022-12-10T06:13:36;95526.66;;;8.14;78.96
40502;BME280;29631;49.168;9.848;2022-12-10T06:16:08;95524.03;;;8.14;78.42
40502;BME280;29631;49.168;9.848;2022-12-10T06:18:34;95537.91;;;8.21;78.93
40502;BME280;29631;49.168;9.848;2022-12-10T06:21:05;95550.00;;;8.22;78.89
40502;BME280;29631;49.168;9.848;2022-12-10T06:23:31;95529.88;;;8.16;78.82
40502;BME280;29631;49.168;9.848;2022-12-10T06:25:57;95525.47;;;8.10;78.18
40502;BME280;29631;49.168;9.848;2022-12-10T06:28:23;95536.31;;;8.20;78.09
40502;BME280;29631;49.168;9.848;2022-12-10T06:30:48;95532.09;;;8.19;78.83
40502;BME280;29631;49.168;9.848;2022-12-10T06:33:14;95540.09;;;8.24;78.45
40502;BME280;29631;49.168;9.848;2022-12-10T06:35:40;95523.56;;;8.23;78.65
40502;BME280;29631;49.168;9.848;2022-12-10T06:38:05;95520.34;;;8.21;79.04
40502;BME280;29631;49.168;9.848;2022-12-10T06:40:31;95524.78;;;8.21;78.57
40502;BME280;29631;49.168;9.848;2022-12-10T06:42:57;95524.34;;;8.24;79.12
40502;BME280;29631;49.168;9.848;2022-12-10T06:45:23;95527.41;;;8.21;78.62
40502;BME280;29631;49.168;9.848;2022-12-10T06:47:48;95525.38;;;8.23;78.37
40502;BME280;29631;49.168;9.848;2022-12-10T06:50:14;95522.59;;;8.18;78.97
40502;BME280;29631;49.168;9.848;2022-12-10T06:52:40;95508.13;;;8.09;78.35
40502;BME280;29631;49.168;9.848;2022-12-10T06:55:06;95526.84;;;8.19;79.07
40502;BME280;29631;49.168;9.848;2022-12-10T06:57:31;95507.69;;;8.12;79.41
40502;BME280;29631;49.168;9.848;2022-12-10T06:59:57;95522.97;;;8.21;78.19
40502;BME280;29631;49.168;9.848;2022-12-10T07:02:23;95502.88;;;8.09;79.01
40502;BME280;29631;49.168;9.848;2022-12-10T07:04:49;95485.81;;;8.00;78.53
40502;BME280;29631;49.168;9.848;2022-12-10T07:07:14;95525.38;;;8.23;78.46
40502;BME280;29631;49.168;9.848;2022-12-10T07:09:40;95499.69;;;8.07;78.96
40502;BME280;29631;49.168;9.848;2022-12-10T07:12:06;95517.34;;;8.18;79.12
40502;BME280;29631;49.168;9.848;2022-12-10T07:14:31;95515.50;;;8.18;78.27
40502;BME280;29631;49.168;9.848;2022-12-10T07:16:57;95504.91;;;8.07;78.25
40502;BME280;29631;49.168;9.848;2022-12-10T07:19:23;95533.38;;;8.28;79.14
40502;BME280;29631;49.168;9.848;2022-12-10T07:21:49;95520.75;;;8.18;78.15
40502;BME280;29631;49.168;9.848;2022-12-10T07:24:18;95489.72;;;7.91;78.96
40502;BME280;29631;49.168;9.848;2022-12-10T07:26:45;95513.34;;;8.15;78.64
40502;BME280;29631;49.168;9.848;2022-12-10T07:29:18;95517.19;;;8.13;78.20
40502;BME280;29631;49.168;9.848;2022-12-10T07:31:45;95526.84;;;8.19;78.83
40502;BME280;29631;49.168;9.848;2022-12-10T07:34:12;95507.19;;;8.03;78.00
40502;BME280;29631;49.168;9.848;2022-12-10T07:36:38;95552.06;;;8.20;78.50
40502;BME280;29631;49.168;9.848;2022-12-10T07:39:09;95553.22;;;8.24;78.59
40502;BME280;29631;49.168;9.848;2022-12-10T07:41:35;95556.88;;;8.23;78.18
40502;BME280;29631;49.168;9.848;2022-12-10T07:44:03;95509.94;;;7.91;78.47
40502;BME280;29631;49.168;9.848;2022-12-10T07:46:32;95548.41;;;8.21;78.41
40502;BME280;29631;49.168;9.848;2022-12-10T07:49:01;95555.25;;;8.22;78.10
40502;BME280;29631;49.168;9.848;2022-12-10T07:51:27;95554.84;;;8.25;78.32
40502;BME280;29631;49.168;9.848;2022-12-10T07:53:54;95561.69;;;8.26;78.92
40502;BME280;29631;49.168;9.848;2022-12-10T07:56:21;95561.47;;;8.27;78.79
40502;BME280;29631;49.168;9.848;2022-12-10T07:58:48;95576.56;;;8.32;78.96
40502;BME280;29631;49.168;9.848;2022-12-10T08:01:21;95565.09;;;8.26;78.74
40502;BME280;29631;49.168;9.848;2022-12-10T08:03:48;95577.44;;;8.26;79.25
40502;BME280;29631;49.168;9.848;2022-12-10T08:06:18;95584.31;;;8.27;78.85
40502;BME280;29631;49.168;9.848;2022-12-10T08:08:46;95567.81;;;8.20;78.82
40502;BME280;29631;49.168;9.848;2022-12-10T08:11:13;95597.13;;;8.35;78.26
40502;BME280;29631;49.168;9.848;2022-12-10T08:13:39;95598.13;;;8.34;78.26
40502;BME280;29631;49.168;9.848;2022-12-10T08:16:14;95601.63;;;8.28;78.62
40502;BME280;29631;49.168;9.848;2022-12-10T08:18:41;95588.38;;;8.23;78.79
40502;BME280;29631;49.168;9.848;2022-12-10T08:21:13;95569.47;;;8.14;78.14
40502;BME280;29631;49.168;9.848;2022-12-10T08:23:40;95606.09;;;8.27;78.83
40502;BME280;29631;49.168;9.848;2022-12-10T08:26:08;95573.56;;;8.04;78.94
40502;BME280;29631;49.168;9.848;2022-12-10T08:28:35;95606.31;;;8.26;78.09
40502;BME280;29631;49.168;9.848;2022-12-10T08:31:02;95604.25;;;8.28;78.64
40502;BME280;29631;49.168;9.848;2022-12-10T08:33:28;95608.94;;;8.26;78.53
40502;BME280;29631;49.168;9.848;2022-12-10T08:36:00;95591.06;;;8.16;78.23
40502;BME280;29631;49.168;9.848;2022-12-10T08:38:26;95602.94;;;8.19;78.91
40502;BME280;29631;49.168;9.848;2022-12-10T08:40:52;95590.47;;;8.14;78.38
40502;BME280;29631;49.168;9.848;2022-12-10T08:43:18;95591.06;;;8.16;78.81
40502;BME280;29631;49.168;9.848;2022-12-10T08:45:44;95614.94;;;8.33;78.49
40502;BME280;29631;49.168;9.848;2022-12-10T08:48:09;95622.97;;;8.38;78.13
40502;BME280;29631;49.168;9.848;2022-12-10T08:50:37;95596.69;;;8.20;79.18
40502;BME280;29631;49.168;9.848;2022-12-10T08:53:02;95621.19;;;8.32;79.15
40502;BME280;29631;49.168;9.848;2022-12-10T08:55:28;95630.25;;;8.36;78.32
40502;BME280;29631;49.168;9.848;2022-12-10T08:57:56;95620.97;;;8.33;78.41
40502;BME280;29631;49.168;9.848;2022-12-10T09:00:21;95623.59;;;8.33;78.13
40502;BME280;29631;49.168;9.848;2022-12-10T09:02:47;95608.56;;;8.22;78.37
40502;BME280;29631;49.168;9.848;2022-12-10T09:05:13;95622.22;;;8.31;78.11
40502;BME280;29631;49.168;9.848;2022-12-10T09:07:39;95620.69;;;8.23;78.77
40502;BME280;29631;49.168;9.848;2022-12-10T09:10:05;95619.50;;;8.19;78.81
40502;BME280;29631;49.168;9.848;2022-12-10T09:12:33;95634.38;;;8.25;78.40
40502;BME280;29631;49.168;9.848;2022-12-10T09:14:59;95620.31;;;8.20;78.67
40502;BME280;29631;49.168;9.848;2022-12-10T09:17:25;95632.19;;;8.22;78.24
40502;BME280;29631;49.168;9.848;2022-12-10T09:19:51;95578.56;;;7.88;78.66
40502;BME280;29631;49.168;9.848;2022-12-10T09:22:16;95598.94;;;8.10;79.07
40502;BME280;29631;49.168;9.848;2022-12-10T09:24:42;95620.75;;;8.35;78.60
40502;BME280;29631;49.168;9.848;2022-12-10T09:27:08;95625.22;;;8.34;79.04
40502;BME280;29631;49.168;9.848;2022-12-10T09:29:34;95611.25;;;8.34;78.39
40502;BME280;29631;49.168;9.848;2022-12-10T09:31:59;95613.63;;;8.42;78.46
40502;BME280;29631;49.168;9.848;2022-12-10T09:34:25;95585.47;;;8.31;78.36
40502;BME280;29631;49.168;9.848;2022-12-10T09:36:51;95612.31;;;8.51;78.56
40502;BME280;29631;49.168;9.848;2022-12-10T09:39:16;95616.34;;;8.53;78.40
40502;BME280;29631;49.168;9.848;2022-12-10T09:45:12;95621.50;;;8.60;79.36
40502;BME280;29631;49.168;9.848;2022-12-10T09:48:23;95614.22;;;8.62;79.12
40502;BME280;29631;49.168;9.848;2022-12-10T09:51:14;95621.09;;;8.63;79.25
40502;BME280;29631;49.168;9.848;2022-12-10T09:53:46;95618.03;;;8.66;78.97
40502;BME280;29631;49.168;9.848;2022-12-10T09:56:23;95618.88;;;8.60;78.58
40502;BME280;29631;49.168;9.848;2022-12-10T09:58:52;95613.44;;;8.61;78.55
40502;BME280;29631;49.168;9.848;2022-12-10T10:01:20;95607.97;;;8.63;78.23
40502;BME280;29631;49.168;9.848;2022-12-10T10:03:48;95618.19;;;8.70;78.70
40502;BME280;29631;49.168;9.848;2022-12-10T10:06:15;95603.28;;;8.65;79.11
40502;BME280;29631;49.168;9.848;2022-12-10T10:08:47;95638.75;;;8.73;78.20
40502;BME280;29631;49.168;9.848;2022-12-10T10:11:29;95613.84;;;8.58;78.44
40502;BME280;29631;49.168;9.848;2022-12-10T10:14:08;95622.69;;;8.64;79.16
40502;BME280;29631;49.168;9.848;2022-12-10T10:16:50;95630.31;;;8.71;78.79
40502;BME280;29631;49.168;9.848;2022-12-10T10:19:23;95627.34;;;8.79;79.08
40502;BME280;29631;49.168;9.848;2022-12-10T10:21:51;95610.44;;;8.75;78.84
40502;BME280;29631;49.168;9.848;2022-12-10T10:24:28;95594.69;;;8.75;79.04
40502;BME280;29631;49.168;9.848;2022-12-10T10:27:11;95593.00;;;8.81;79.29
40502;BME280;29631;49.168;9.848;2022-12-10T10:29:37;95602.53;;;8.93;78.47
40502;BME280;29631;49.168;9.848;2022-12-10T10:32:22;95605.75;;;8.95;78.51
40502;BME280;29631;49.168;9.848;2022-12-10T10:34:58;95623.50;;;9.00;78.49
40502;BME280;29631;49.168;9.848;2022-12-10T10:40:00;95642.81;;;9.05;78.32
40502;BME280;29631;49.168;9.848;2022-12-10T10:42:38;95632.78;;;9.02;78.74
40502;BME280;29631;49.168;9.848;2022-12-10T10:48:19;95629.69;;;9.05;79.35
40502;BME280;29631;49.168;9.848;2022-12-10T10:53:32;95622.50;;;9.01;79.22
40502;BME280;29631;49.168;9.848;2022-12-10T10:56:18;95630.00;;;8.97;78.41
40502;BME280;29631;49.168;9.848;2022-12-10T10:59:07;95644.56;;;9.11;79.46
40502;BME280;29631;49.168;9.848;2022-12-10T11:01:46;95654.66;;;9.14;78.31
40502;BME280;29631;49.168;9.848;2022-12-10T11:04:15;95647.78;;;9.13;79.68
40502;BME280;29631;49.168;9.848;2022-12-10T11:06:42;95616.28;;;8.95;78.64
40502;BME280;29631;49.168;9.848;2022-12-10T11:09:21;95648.75;;;9.19;79.32
40502;BME280;29631;49.168;9.848;2022-12-10T11:11:52;95598.31;;;8.92;78.48
40502;BME280;29631;49.168;9.848;2022-12-10T11:14:27;95635.91;;;9.11;79.27
40502;BME280;29631;49.168;9.848;2022-12-10T11:17:21;95631.44;;;9.11;79.27
40502;BME280;29631;49.168;9.848;2022-12-10T11:22:30;95629.03;;;9.10;78.70
40502;BME280;29631;49.168;9.848;2022-12-10T11:24:58;95626.63;;;9.08;78.45
40502;BME280;29631;49.168;9.848;2022-12-10T11:27:52;95645.31;;;9.18;78.46
40502;BME280;29631;49.168;9.848;2022-12-10T11:30:25;95652.03;;;9.14;78.73
40502;BME280;29631;49.168;9.848;2022-12-10T11:36:13;95643.00;;;9.10;78.63
40502;BME280;29631;49.168;9.848;2022-12-10T11:38:56;95631.06;;;9.08;78.56
40502;BME280;29631;49.168;9.848;2022-12-10T11:47:13;95653.34;;;9.23;78.68
40502;BME280;29631;49.168;9.848;2022-12-10T11:50:33;95655.97;;;9.23;77.99
40502;BME280;29631;49.168;9.848;2022-12-10T12:07:21;95669.19;;;9.17;78.18
40502;BME280;29631;49.168;9.848;2022-12-10T12:10:13;95665.53;;;9.18;78.68
40502;BME280;29631;49.168;9.848;2022-12-10T12:13:16;95672.06;;;9.15;78.46
40502;BME280;29631;49.168;9.848;2022-12-10T12:18:45;95670.56;;;9.19;78.28
40502;BME280;29631;49.168;9.848;2022-12-10T12:21:15;95659.28;;;9.19;78.18
40502;BME280;29631;49.168;9.848;2022-12-10T12:26:30;95663.69;;;9.18;78.40
40502;BME280;29631;49.168;9.848;2022-12-10T12:29:23;95673.56;;;9.23;78.33
40502;BME280;29631;49.168;9.848;2022-12-10T12:32:01;95656.69;;;9.12;78.04
40502;BME280;29631;49.168;9.848;2022-12-10T12:37:21;95666.19;;;9.13;78.71
40502;BME280;29631;49.168;9.848;2022-12-10T12:43:08;95660.22;;;9.06;78.55
40502;BME280;29631;49.168;9.848;2022-12-10T12:45:44;95670.31;;;9.09;78.05
40502;BME280;29631;49.168;9.848;2022-12-10T12:48:24;95667.22;;;9.12;77.80
40502;BME280;29631;49.168;9.848;2022-12-10T12:51:26;95672.34;;;9.07;77.95
40502;BME280;29631;49.168;9.848;2022-12-10T12:53:54;95662.84;;;9.06;78.94
40502;BME280;29631;49.168;9.848;2022-12-10T12:56:59;95679.34;;;9.13;77.86
40502;BME280;29631;49.168;9.848;2022-12-10T12:59:52;95676.72;;;9.13;78.72
40502;BME280;29631;49.168;9.848;2022-12-10T13:05:26;95677.59;;;9.07;78.58
40502;BME280;29631;49.168;9.848;2022-12-10T13:11:17;95661.69;;;9.02;78.42
40502;BME280;29631;49.168;9.848;2022-12-10T13:30:00;95692.19;;;9.21;77.51
40502;BME280;29631;49.168;9.848;2022-12-10T13:37:35;95713.81;;;9.23;77.23
40502;BME280;29631;49.168;9.848;2022-12-10T13:42:37;95728.41;;;9.19;77.21
40502;BME280;29631;49.168;9.848;2022-12-10T13:51:16;95729.28;;;9.13;78.14
40502;BME280;29631;49.168;9.848;2022-12-10T13:56:49;95732.16;;;9.12;77.31
40502;BME280;29631;49.168;9.848;2022-12-10T14:02:53;95742.94;;;9.22;78.51
40502;BME280;29631;49.168;9.848;2022-12-10T14:08:32;95728.56;;;9.06;78.16
40502;BME280;29631;49.168;9.848;2022-12-10T14:11:00;95731.84;;;9.02;78.21
40502;BME280;29631;49.168;9.848;2022-12-10T14:13:43;95747.19;;;9.05;77.61
40502;BME280;29631;49.168;9.848;2022-12-10T14:16:14;95746.16;;;9.06;77.83
40502;BME280;29631;49.168;9.848;2022-12-10T14:18:59;95739.34;;;8.98;77.65
40502;BME280;29631;49.168;9.848;2022-12-10T14:21:27;95752.06;;;9.01;78.42
40502;BME280;29631;49.168;9.848;2022-12-10T14:23:56;95755.56;;;8.95;78.26
40502;BME280;29631;49.168;9.848;2022-12-10T14:26:30;95756.81;;;8.93;78.32
40502;BME280;29631;49.168;9.848;2022-12-10T14:29:19;95763.44;;;8.95;78.13
40502;BME280;29631;49.168;9.848;2022-12-10T14:31:50;95757.44;;;8.88;77.69
40502;BME280;29631;49.168;9.848;2022-12-10T14:34:25;95779.63;;;8.92;78.34
40502;BME280;29631;49.168;9.848;2022-12-10T14:37:01;95780.09;;;8.89;77.86
40502;BME280;29631;49.168;9.848;2022-12-10T14:39:32;95766.78;;;8.84;78.45
40502;BME280;29631;49.168;9.848;2022-12-10T14:42:05;95777.88;;;8.86;77.43
40502;BME280;29631;49.168;9.848;2022-12-10T14:44:33;95764.00;;;8.79;77.11
40502;BME280;29631;49.168;9.848;2022-12-10T14:47:10;95757.19;;;8.72;78.27
40502;BME280;29631;49.168;9.848;2022-12-10T14:49:41;95787.81;;;8.84;77.52
40502;BME280;29631;49.168;9.848;2022-12-10T14:52:22;95765.59;;;8.80;77.61
40502;BME280;29631;49.168;9.848;2022-12-10T14:54:49;95767.66;;;8.78;77.54
40502;BME280;29631;49.168;9.848;2022-12-10T14:57:25;95790.16;;;8.92;78.33
40502;BME280;29631;49.168;9.848;2022-12-10T15:02:38;95787.22;;;8.82;77.74
40502;BME280;29631;49.168;9.848;2022-12-10T15:05:32;95787.44;;;8.81;77.46
40502;BME280;29631;49.168;9.848;2022-12-10T15:08:04;95788.59;;;8.85;78.00
40502;BME280;29631;49.168;9.848;2022-12-10T15:10:41;95804.53;;;8.90;77.00
40502;BME280;29631;49.168;9.848;2022-12-10T15:15:51;95808.84;;;8.84;77.17
40502;BME280;29631;49.168;9.848;2022-12-10T15:18:28;95813.34;;;8.77;77.57
40502;BME280;29631;49.168;9.848;2022-12-10T15:23:40;95794.28;;;8.58;77.34
40502;BME280;29631;49.168;9.848;2022-12-10T15:26:21;95818.41;;;8.72;77.91
40502;BME280;29631;49.168;9.848;2022-12-10T15:28:51;95801.31;;;8.64;77.22
40502;BME280;29631;49.168;9.848;2022-12-10T15:33:56;95822.66;;;8.73;76.95
40502;BME280;29631;49.168;9.848;2022-12-10T15:39:23;95801.72;;;8.61;77.31
40502;BME280;29631;49.168;9.848;2022-12-10T15:45:41;95808.59;;;8.62;77.92
40502;BME280;29631;49.168;9.848;2022-12-10T15:48:11;95813.84;;;8.62;77.18